Time;durP1;ratioP1;P1;durP2;ratioP2;P2;SDS_P1;SDS_P2;PMS_P1;PMS_P2;Temp;Humidity;BMP_temperature;BMP_pressure;BME280_temperature;BME280_humidity;BME280_pressure;Samples;Min_cycle;Max_cycle;Signal;HPM_P1;HPM_P2
2022/10/01 00:00:26;;;;;;;12.37;8.60;;;;;;;;;;5049387;28;20194;-55
2022/10/01 00:03:00;;;;;;;11.17;8.80;;;10.80;1.00;;;;;;5049931;28;20180;-53
2022/10/01 00:05:27;;;;;;;10.70;9.47;;;10.80;1.00;;;;;;5047813;28;20496;-54
2022/10/01 00:07:52;;;;;;;10.20;8.83;;;10.80;1.00;;;;;;5045645;28;20467;-55
2022/10/01 00:10:18;;;;;;;10.33;9.17;;;;;;;;;;5048770;28;20475;-56
2022/10/01 00:12:46;;;;;;;9.50;8.60;;;10.80;1.00;;;;;;5048988;28;20185;-56
2022/10/01 00:15:18;;;;;;;9.63;8.03;;;10.70;1.00;;;;;;5046840;28;20846;-54
2022/10/01 00:17:44;;;;;;;9.37;8.13;;;10.70;1.00;;;;;;5045751;28;20453;-54
2022/10/01 00:20:13;;;;;;;8.70;7.90;;;10.60;1.00;;;;;;5052279;28;20476;-53
2022/10/01 00:22:38;;;;;;;9.10;8.20;;;10.60;1.00;;;;;;5049521;28;20192;-53
2022/10/01 00:25:08;;;;;;;12.47;8.33;;;10.60;1.00;;;;;;5047937;28;20557;-54
2022/10/01 00:27:34;;;;;;;10.90;7.93;;;10.60;1.00;;;;;;5044801;28;21022;-55
2022/10/01 00:30:02;;;;;;;9.17;7.93;;;10.60;1.00;;;;;;5045031;28;20527;-54
2022/10/01 00:32:31;;;;;;;8.53;7.73;;;;;;;;;;5041121;28;20451;-53
2022/10/01 00:34:57;;;;;;;8.40;7.60;;;;;;;;;;5040420;28;20457;-54
2022/10/01 00:37:23;;;;;;;7.93;7.13;;;10.60;1.00;;;;;;5024093;28;20496;-55
2022/10/01 00:39:48;;;;;;;10.93;8.60;;;10.60;1.00;;;;;;5049046;28;20506;-53
2022/10/01 00:42:21;;;;;;;11.20;8.47;;;10.60;1.00;;;;;;5044675;28;20225;-53
2022/10/01 00:44:48;;;;;;;8.83;7.93;;;10.50;1.00;;;;;;5047211;28;20268;-56
2022/10/01 00:47:19;;;;;;;10.50;9.20;;;10.50;1.00;;;;;;5047174;28;20918;-54
2022/10/01 00:49:46;;;;;;;9.13;8.27;;;10.50;1.00;;;;;;5057860;28;20431;-55
2022/10/01 00:52:17;;;;;;;10.80;9.27;;;12.00;1.00;;;;;;5048659;28;20510;-54
2022/10/01 00:54:50;;;;;;;9.43;7.57;;;10.10;1.00;;;;;;5048941;28;20475;-55
2022/10/01 00:57:19;;;;;;;11.87;8.30;;;10.40;1.00;;;;;;5047927;28;20458;-54
2022/10/01 00:59:46;;;;;;;9.97;7.87;;;10.30;1.00;;;;;;5044917;28;20536;-55
2022/10/01 01:02:11;;;;;;;12.40;8.30;;;10.40;1.00;;;;;;5046782;28;20448;-55
2022/10/01 01:04:39;;;;;;;8.43;7.30;;;10.40;1.00;;;;;;5043619;28;20672;-55
2022/10/01 01:07:05;;;;;;;8.70;7.90;;;10.30;1.00;;;;;;5046371;28;20197;-53
2022/10/01 01:09:52;;;;;;;9.07;8.17;;;10.40;1.00;;;;;;5048233;28;20436;-55
2022/10/01 01:12:44;;;;;;;8.83;7.80;;;10.30;1.00;;;;;;5049169;28;20454;-55
2022/10/01 01:15:36;;;;;;;9.13;7.83;;;10.30;1.00;;;;;;5049071;28;20441;-53
2022/10/01 01:18:30;;;;;;;9.13;8.23;;;10.30;1.00;;;;;;5046855;28;20438;-55
2022/10/01 01:21:11;;;;;;;9.70;8.80;;;10.30;1.00;;;;;;5036299;28;20459;-55
2022/10/01 01:24:02;;;;;;;8.87;7.97;;;10.30;1.00;;;;;;5045565;28;20509;-55
2022/10/01 01:27:03;;;;;;;9.27;8.10;;;10.20;1.00;;;;;;5049544;28;20456;-54
2022/10/01 01:29:54;;;;;;;10.17;8.70;;;10.30;1.00;;;;;;5056212;28;20486;-53
2022/10/01 01:32:51;;;;;;;9.60;8.80;;;10.30;1.00;;;;;;5044432;28;20817;-55
2022/10/01 01:35:41;;;;;;;10.10;8.00;;;10.30;1.00;;;;;;5046750;28;20457;-54
2022/10/01 01:38:13;;;;;;;9.70;8.70;;;10.20;1.00;;;;;;5045891;28;20432;-54
2022/10/01 01:40:41;;;;;;;8.77;7.90;;;10.20;1.00;;;;;;5046351;28;20426;-53
2022/10/01 01:43:14;;;;;;;9.40;7.67;;;10.20;1.00;;;;;;5048004;28;20506;-56
2022/10/01 01:45:41;;;;;;;11.60;7.90;;;10.20;1.00;;;;;;5048169;28;20515;-55
2022/10/01 01:48:08;;;;;;;9.37;8.37;;;10.10;1.00;;;;;;5046459;28;20447;-53
2022/10/01 01:50:45;;;;;;;11.60;7.93;;;10.10;1.00;;;;;;5047433;28;20473;-55
2022/10/01 01:53:10;;;;;;;8.93;8.13;;;10.10;1.00;;;;;;5046218;28;20445;-53
2022/10/01 01:55:37;;;;;;;8.60;7.70;;;10.10;1.00;;;;;;5046389;28;20846;-53
2022/10/01 01:58:03;;;;;;;10.07;7.83;;;10.10;1.00;;;;;;5048702;28;20240;-55
2022/10/01 02:00:28;;;;;;;8.70;7.90;;;10.10;1.00;;;;;;5051533;28;20447;-53
2022/10/01 02:02:56;;;;;;;8.90;7.70;;;10.10;1.00;;;;;;5045801;28;20443;-54
2022/10/01 02:05:34;;;;;;;8.97;7.80;;;10.00;1.00;;;;;;5045387;28;20204;-54
2022/10/01 02:08:28;;;;;;;9.60;7.77;;;10.00;1.00;;;;;;5047643;28;20454;-56
2022/10/01 02:11:03;;;;;;;9.13;7.90;;;9.90;1.00;;;;;;5033170;28;20441;-54
2022/10/01 02:14:01;;;;;;;11.43;8.73;;;9.90;1.00;;;;;;5050104;28;20469;-55
2022/10/01 02:16:38;;;;;;;8.07;7.20;;;9.90;1.00;;;;;;5049689;28;20424;-55
2022/10/01 02:19:32;;;;;;;8.93;7.67;;;9.90;1.00;;;;;;5060524;28;20456;-55
2022/10/01 02:22:01;;;;;;;10.23;9.20;;;10.00;1.00;;;;;;5050578;28;20816;-53
2022/10/01 02:24:39;;;;;;;9.60;7.93;;;9.90;1.00;;;;;;5047530;28;20542;-54
2022/10/01 02:27:12;;;;;;;9.53;8.50;;;9.90;1.00;;;;;;5048661;28;20558;-54
2022/10/01 02:29:39;;;;;;;8.50;7.60;;;9.90;1.00;;;;;;5046660;28;20454;-53
2022/10/01 02:32:05;;;;;;;10.63;8.40;;;9.90;1.00;;;;;;5050622;28;20538;-55
2022/10/01 02:34:32;;;;;;;10.97;7.50;;;9.90;1.00;;;;;;5049038;28;20764;-54
2022/10/01 02:37:02;;;;;;;11.30;8.87;;;9.90;1.00;;;;;;5050157;28;20458;-55
2022/10/01 02:39:31;;;;;;;10.13;8.53;;;9.90;1.00;;;;;;5049273;28;20449;-53
2022/10/01 02:41:59;;;;;;;9.30;8.37;;;9.90;1.00;;;;;;5048239;28;20493;-55
2022/10/01 02:44:36;;;;;;;10.03;9.03;;;9.90;1.00;;;;;;5050366;28;20542;-54
2022/10/01 02:47:06;;;;;;;10.53;8.53;;;9.90;1.00;;;;;;5049009;28;20774;-53
2022/10/01 02:49:33;;;;;;;10.40;8.87;;;9.90;1.00;;;;;;5049148;28;20795;-55
2022/10/01 02:52:03;;;;;;;10.60;9.50;;;9.90;1.00;;;;;;5050375;28;20446;-54
2022/10/01 02:54:44;;;;;;;9.40;7.80;;;9.90;1.00;;;;;;5047413;28;20451;-55
2022/10/01 02:57:25;;;;;;;10.60;8.60;;;9.90;1.00;;;;;;5049415;28;22308;-52
2022/10/01 02:59:56;;;;;;;10.40;9.40;;;9.90;1.00;;;;;;5050140;28;20428;-54
2022/10/01 03:02:24;;;;;;;9.97;8.90;;;9.90;1.00;;;;;;5050502;28;20466;-52
2022/10/01 03:04:50;;;;;;;9.00;8.10;;;9.90;1.00;;;;;;5046998;28;20561;-55
2022/10/01 03:07:16;;;;;;;11.53;8.80;;;9.90;1.00;;;;;;5050091;28;20604;-55
2022/10/01 03:09:42;;;;;;;14.87;9.50;;;9.90;1.00;;;;;;5049368;28;20177;-55
2022/10/01 03:12:09;;;;;;;10.70;8.57;;;9.90;1.00;;;;;;5050609;28;20583;-54
2022/10/01 03:14:35;;;;;;;13.00;9.33;;;9.90;1.00;;;;;;5049275;28;20197;-54
2022/10/01 03:17:01;;;;;;;9.43;8.47;;;9.80;1.00;;;;;;5049917;28;20500;-54
2022/10/01 03:19:26;;;;;;;10.87;8.80;;;9.70;1.00;;;;;;5049812;28;20534;-55
2022/10/01 03:21:52;;;;;;;10.67;9.57;;;9.70;1.00;;;;;;5051379;28;20195;-55
2022/10/01 03:24:18;;;;;;;10.90;8.40;;;9.80;1.00;;;;;;5047724;28;20216;-55
2022/10/01 03:26:44;;;;;;;11.47;9.60;;;9.60;1.00;;;;;;5049475;28;20890;-52
2022/10/01 03:29:10;;;;;;;9.90;8.73;;;9.70;1.00;;;;;;5050739;28;20533;-53
2022/10/01 03:31:36;;;;;;;9.90;8.90;;;9.70;1.00;;;;;;5047779;28;20786;-55
2022/10/01 03:34:02;;;;;;;10.83;9.40;;;9.60;1.00;;;;;;5045043;28;20461;-53
2022/10/01 03:36:28;;;;;;;11.40;9.07;;;9.70;1.00;;;;;;5048325;28;20445;-54
2022/10/01 03:38:54;;;;;;;10.50;9.43;;;9.70;1.00;;;;;;5046529;28;20436;-55
2022/10/01 03:41:20;;;;;;;10.70;9.60;;;9.60;1.00;;;;;;5049793;28;20593;-55
2022/10/01 03:43:45;;;;;;;11.43;9.30;;;11.30;1.00;;;;;;5048127;28;20613;-55
2022/10/01 03:46:11;;;;;;;13.27;10.30;;;9.60;1.00;;;;;;5047834;28;20195;-55
2022/10/01 03:48:37;;;;;;;10.97;9.80;;;9.70;1.00;;;;;;5050778;28;20179;-53
2022/10/01 03:51:03;;;;;;;13.20;10.10;;;9.60;1.00;;;;;;5046575;28;20565;-53
2022/10/01 03:53:30;;;;;;;10.50;9.40;;;9.60;1.00;;;;;;5048158;28;20443;-53
2022/10/01 03:55:57;;;;;;;12.00;9.30;;;9.60;1.00;;;;;;5048886;28;20533;-55
2022/10/01 03:58:22;;;;;;;12.43;10.20;;;9.60;1.00;;;;;;5053000;28;20452;-53
2022/10/01 04:00:48;;;;;;;10.47;9.47;;;9.80;1.00;;;;;;5052949;28;20451;-55
2022/10/01 04:03:15;;;;;;;12.77;10.67;;;9.80;1.00;;;;;;5047620;28;20200;-55
2022/10/01 04:05:42;;;;;;;11.90;10.67;;;9.70;1.00;;;;;;5048960;28;20183;-54
2022/10/01 04:08:09;;;;;;;13.30;9.70;;;9.80;1.00;;;;;;5046939;28;20421;-56
2022/10/01 04:10:35;;;;;;;11.37;10.00;;;9.80;1.00;;;;;;5048187;28;20445;-52
2022/10/01 04:13:02;;;;;;;11.33;10.20;;;9.80;1.00;;;;;;5054584;28;20460;-56
2022/10/01 04:15:28;;;;;;;10.23;8.70;;;9.80;1.00;;;;;;5047113;28;20253;-54
2022/10/01 04:17:53;;;;;;;10.90;9.63;;;9.80;1.00;;;;;;5054791;28;20786;-54
2022/10/01 04:20:19;;;;;;;10.10;9.03;;;9.80;1.00;;;;;;5046576;28;20274;-54
2022/10/01 04:22:45;;;;;;;10.03;9.03;;;9.80;1.00;;;;;;5045424;28;20233;-55
2022/10/01 04:25:12;;;;;;;9.73;8.83;;;9.80;1.00;;;;;;5044514;28;20218;-54
2022/10/01 04:27:42;;;;;;;11.53;10.33;;;9.70;1.00;;;;;;5047445;28;20447;-54
2022/10/01 04:30:09;;;;;;;9.90;8.90;;;9.80;1.00;;;;;;5049129;28;20780;-52
2022/10/01 04:32:35;;;;;;;11.57;9.40;;;9.80;1.00;;;;;;5047424;28;20512;-54
2022/10/01 04:35:03;;;;;;;10.90;9.70;;;9.80;1.00;;;;;;5048144;28;20432;-53
2022/10/01 04:37:29;;;;;;;12.30;9.67;;;9.80;1.00;;;;;;5044420;28;20862;-55
2022/10/01 04:39:55;;;;;;;12.20;10.90;;;9.90;1.00;;;;;;5040050;28;20498;-53
2022/10/01 04:42:21;;;;;;;10.53;9.10;;;9.80;1.00;;;;;;5040344;28;20523;-52
2022/10/01 04:44:47;;;;;;;13.67;9.80;;;9.80;1.00;;;;;;5048371;28;20502;-54
2022/10/01 04:47:13;;;;;;;11.30;10.10;;;9.80;1.00;;;;;;5048120;28;20184;-55
2022/10/01 04:49:38;;;;;;;10.17;9.07;;;9.80;1.00;;;;;;5047747;28;20619;-55
2022/10/01 04:52:04;;;;;;;11.63;9.30;;;9.80;1.00;;;;;;5053857;28;20250;-55
2022/10/01 04:54:30;;;;;;;11.33;9.60;;;9.90;1.00;;;;;;5049848;28;20191;-54
2022/10/01 04:56:57;;;;;;;9.90;8.90;;;9.80;1.00;;;;;;5047200;28;20471;-55
2022/10/01 04:59:23;;;;;;;12.10;10.53;;;9.80;1.00;;;;;;5047949;28;20210;-54
2022/10/01 05:01:48;;;;;;;10.87;9.73;;;9.80;1.00;;;;;;5047446;28;20573;-51
2022/10/01 05:04:14;;;;;;;12.90;9.80;;;9.80;1.00;;;;;;5048345;28;20569;-53
2022/10/01 05:06:40;;;;;;;14.87;9.50;;;9.90;1.00;;;;;;5043186;28;20195;-56
2022/10/01 05:09:06;;;;;;;10.60;9.20;;;9.80;1.00;;;;;;5046757;28;20188;-54
2022/10/01 05:11:33;;;;;;;11.47;9.73;;;9.90;1.00;;;;;;5049214;28;21053;-55
2022/10/01 05:13:59;;;;;;;13.13;10.83;;;9.90;1.00;;;;;;5047102;28;20553;-56
2022/10/01 05:16:24;;;;;;;13.10;9.73;;;9.90;1.00;;;;;;5048377;28;20430;-55
2022/10/01 05:18:50;;;;;;;10.90;9.80;;;10.00;1.00;;;;;;5046044;28;20201;-55
2022/10/01 05:21:15;;;;;;;11.83;10.63;;;10.10;1.00;;;;;;5048011;28;20192;-56
2022/10/01 05:23:41;;;;;;;11.20;10.10;;;10.10;1.00;;;;;;5049024;28;20618;-53
2022/10/01 05:26:07;;;;;;;13.13;10.63;;;10.20;1.00;;;;;;5047780;28;20206;-53
2022/10/01 05:28:34;;;;;;;10.60;9.43;;;10.20;1.00;;;;;;5046677;28;20282;-55
2022/10/01 05:31:03;;;;;;;10.50;9.40;;;10.20;1.00;;;;;;5047470;28;20421;-54
2022/10/01 05:33:30;;;;;;;11.37;9.83;;;10.30;1.00;;;;;;5047766;28;20464;-53
2022/10/01 05:35:58;;;;;;;12.80;9.43;;;10.30;1.00;;;;;;5045681;28;20892;-55
2022/10/01 05:38:24;;;;;;;12.67;9.93;;;10.40;1.00;;;;;;5045170;28;20457;-54
2022/10/01 05:40:50;;;;;;;11.17;9.70;;;10.40;1.00;;;;;;5047395;28;20541;-52
2022/10/01 05:43:17;;;;;;;11.13;8.87;;;10.40;1.00;;;;;;5048465;28;20589;-55
2022/10/01 05:45:43;;;;;;;10.67;9.57;;;10.40;1.00;;;;;;5051202;28;20196;-55
2022/10/01 05:48:09;;;;;;;11.93;9.07;;;10.50;1.00;;;;;;5052420;28;20439;-55
2022/10/01 05:50:39;;;;;;;12.70;10.10;;;10.60;1.00;;;;;;5050312;28;20424;-55
2022/10/01 05:53:05;;;;;;;10.17;9.10;;;10.70;1.00;;;;;;5050374;28;20981;-54
2022/10/01 05:55:32;;;;;;;12.33;9.40;;;10.70;1.00;;;;;;5047988;28;20488;-54
2022/10/01 05:58:00;;;;;;;12.27;10.40;;;10.70;1.00;;;;;;5050530;28;20458;-54
2022/10/01 06:00:27;;;;;;;10.80;9.50;;;10.80;1.00;;;;;;5050111;28;20774;-54
2022/10/01 06:02:54;;;;;;;10.27;9.17;;;10.80;1.00;;;;;;5051508;28;20474;-55
2022/10/01 06:05:20;;;;;;;12.33;10.00;;;10.80;1.00;;;;;;5049522;28;20467;-54
2022/10/01 06:07:47;;;;;;;13.57;10.37;;;10.90;1.00;;;;;;5049631;28;20450;-54
2022/10/01 06:10:13;;;;;;;12.33;10.13;;;10.90;1.00;;;;;;5053858;28;20456;-56
2022/10/01 06:12:38;;;;;;;11.60;10.30;;;11.00;1.00;;;;;;5051509;28;20421;-54
2022/10/01 06:15:04;;;;;;;12.40;8.97;;;12.70;1.00;;;;;;5051002;28;20577;-54
2022/10/01 06:17:30;;;;;;;10.60;9.60;;;11.00;1.00;;;;;;5050389;28;20185;-54
2022/10/01 06:19:56;;;;;;;10.60;9.60;;;11.10;1.00;;;;;;5054993;28;20447;-54
2022/10/01 06:22:21;;;;;;;11.27;10.10;;;11.20;1.00;;;;;;5049729;28;20666;-54
2022/10/01 06:24:47;;;;;;;12.40;10.20;;;11.20;1.00;;;;;;5049989;28;20542;-54
2022/10/01 06:27:12;;;;;;;11.63;10.10;;;11.30;1.00;;;;;;5055526;28;20184;-54
2022/10/01 06:29:38;;;;;;;11.90;10.70;;;11.40;1.00;;;;;;5051990;28;20216;-55
2022/10/01 06:32:04;;;;;;;11.33;10.10;;;11.50;1.00;;;;;;5049203;28;20503;-54
2022/10/01 06:34:29;;;;;;;11.50;10.33;;;11.60;1.00;;;;;;5050741;28;20190;-54
2022/10/01 06:36:55;;;;;;;11.23;9.97;;;11.70;1.00;;;;;;5051417;28;20454;-55
2022/10/01 06:39:20;;;;;;;10.77;9.40;;;11.80;1.00;;;;;;5047484;28;20187;-54
2022/10/01 06:41:46;;;;;;;11.13;9.90;;;11.90;1.00;;;;;;5049231;28;20191;-56
2022/10/01 06:44:12;;;;;;;10.77;8.27;;;12.00;1.00;;;;;;5053363;28;21017;-53
2022/10/01 06:46:38;;;;;;;11.70;10.10;;;12.00;1.00;;;;;;5048819;28;20457;-54
2022/10/01 06:49:03;;;;;;;10.27;9.27;;;12.20;1.00;;;;;;5047744;28;20274;-54
2022/10/01 06:54:13;;;;;;;12.73;10.23;;;12.30;1.00;;;;;;5050402;28;20197;-54
2022/10/01 06:56:39;;;;;;;11.60;9.70;;;12.40;1.00;;;;;;5049289;28;20459;-53
2022/10/01 06:59:04;;;;;;;10.87;9.87;;;12.40;1.00;;;;;;5049288;28;20739;-54
2022/10/01 07:01:31;;;;;;;9.77;8.83;;;12.50;1.00;;;;;;5050390;28;20426;-54
2022/10/01 07:03:58;;;;;;;11.50;9.10;;;12.50;1.00;;;;;;5051106;28;20687;-55
2022/10/01 07:06:24;;;;;;;9.10;8.20;;;12.70;1.00;;;;;;5044177;28;20444;-55
2022/10/01 07:08:50;;;;;;;11.63;10.40;;;12.80;1.00;;;;;;5050059;28;20425;-54
2022/10/01 07:11:16;;;;;;;9.93;8.70;;;12.80;1.00;;;;;;5050135;28;20418;-55
2022/10/01 07:13:41;;;;;;;9.70;8.70;;;12.90;1.00;;;;;;5049017;28;20192;-53
2022/10/01 07:16:07;;;;;;;12.40;9.33;;;13.00;1.00;;;;;;5062701;28;20189;-52
2022/10/01 07:18:33;;;;;;;10.10;9.00;;;12.90;1.00;;;;;;5049632;28;20187;-55
2022/10/01 07:20:58;;;;;;;13.30;9.90;;;12.80;1.00;;;;;;5050968;28;20640;-54
2022/10/01 07:23:24;;;;;;;10.10;8.23;;;12.90;1.00;;;;;;5048309;28;20605;-54
2022/10/01 07:25:50;;;;;;;9.70;8.63;;;12.90;1.00;;;;;;5051593;28;20184;-55
2022/10/01 07:28:19;;;;;;;9.63;8.63;;;12.90;1.00;;;;;;5045748;28;20600;-56
2022/10/01 07:31:09;;;;;;;10.03;9.00;;;13.00;1.00;;;;;;5049861;28;20187;-55
2022/10/01 07:33:34;;;;;;;10.57;8.50;;;13.00;1.00;;;;;;5048130;28;20440;-54
2022/10/01 07:36:02;;;;;;;9.80;8.80;;;13.10;1.00;;;;;;5048167;28;20447;-55
2022/10/01 07:38:28;;;;;;;8.70;7.90;;;13.10;1.00;;;;;;5046406;28;20717;-54
2022/10/01 07:40:54;;;;;;;9.70;8.70;;;13.30;1.00;;;;;;5048126;28;20509;-53
2022/10/01 07:43:20;;;;;;;12.40;9.00;;;13.30;1.00;;;;;;5047656;28;20454;-55
2022/10/01 07:45:48;;;;;;;9.80;8.27;;;13.20;1.00;;;;;;5046728;28;20235;-54
2022/10/01 07:48:14;;;;;;;8.97;7.33;;;13.30;1.00;;;;;;5048155;28;20478;-53
2022/10/01 07:50:43;;;;;;;9.30;8.47;;;13.20;1.00;;;;;;5046754;28;20883;-55
2022/10/01 07:53:10;;;;;;;9.33;8.17;;;13.20;1.00;;;;;;5050399;28;20315;-53
2022/10/01 07:55:35;;;;;;;9.03;8.10;;;13.40;1.00;;;;;;5047970;28;20798;-55
2022/10/01 07:58:01;;;;;;;9.60;8.10;;;13.50;1.00;;;;;;5048158;28;20475;-55
2022/10/01 08:00:32;;;;;;;8.87;8.07;;;13.50;1.00;;;;;;5048840;28;20563;-55
2022/10/01 08:02:58;;;;;;;9.40;8.30;;;13.70;1.00;;;;;;5048408;28;20204;-54
2022/10/01 08:05:33;;;;;;;9.53;8.50;;;13.80;1.00;;;;;;5047355;28;20469;-55
2022/10/01 08:08:00;;;;;;;10.37;8.60;;;13.90;1.00;;;;;;5046744;28;20495;-55
2022/10/01 08:10:27;;;;;;;9.37;7.60;;;14.10;1.00;;;;;;5047930;28;20418;-55
2022/10/01 08:13:07;;;;;;;9.00;7.70;;;14.30;1.00;;;;;;5047052;28;20433;-53
2022/10/01 08:15:32;;;;;;;11.30;7.67;;;14.50;1.00;;;;;;5050028;28;20488;-53
2022/10/01 08:18:02;;;;;;;8.33;7.53;;;14.50;1.00;;;;;;5048702;28;20430;-54
2022/10/01 08:20:28;;;;;;;7.83;7.03;;;14.60;1.00;;;;;;5046280;28;20196;-54
2022/10/01 08:23:04;;;;;;;8.53;7.63;;;14.70;1.00;;;;;;5047127;28;20785;-55
2022/10/01 08:25:29;;;;;;;10.13;7.70;;;14.80;1.00;;;;;;5045701;28;20457;-54
2022/10/01 08:27:55;;;;;;;7.63;6.93;;;14.80;1.00;;;;;;5058171;28;20812;-53
2022/10/01 08:30:21;;;;;;;8.20;7.40;;;;;;;;;;5057683;28;20204;-54
2022/10/01 08:32:47;;;;;;;7.90;7.10;;;15.00;1.00;;;;;;5062162;28;20187;-54
2022/10/01 08:35:12;;;;;;;7.57;6.87;;;15.00;1.00;;;;;;5047629;28;20788;-54
2022/10/01 08:37:38;;;;;;;7.47;6.73;;;15.00;1.00;;;;;;5050030;28;20269;-56
2022/10/01 08:40:12;;;;;;;6.27;5.73;;;14.90;1.00;;;;;;5048058;28;20243;-55
2022/10/01 08:43:05;;;;;;;8.47;7.50;;;14.90;1.00;;;;;;5050922;28;20235;-56
2022/10/01 08:45:37;;;;;;;8.63;6.23;;;15.00;1.00;;;;;;5054848;28;20527;-55
2022/10/01 08:48:15;;;;;;;6.80;6.10;;;15.10;1.00;;;;;;5069761;28;20407;-54
2022/10/01 08:50:51;;;;;;;7.00;6.30;;;15.10;1.00;;;;;;5048823;28;20470;-54
2022/10/01 08:53:33;;;;;;;7.30;6.70;;;15.10;1.00;;;;;;5049779;28;20771;-55
2022/10/01 08:56:01;;;;;;;6.37;5.87;;;15.20;1.00;;;;;;5049443;28;20491;-54
2022/10/01 08:58:44;;;;;;;7.93;6.77;;;18.50;1.00;;;;;;5045058;28;20558;-53
2022/10/01 09:01:10;;;;;;;7.17;6.23;;;15.30;1.00;;;;;;5066430;28;20464;-53
2022/10/01 09:03:37;;;;;;;7.30;6.60;;;15.40;1.00;;;;;;5055668;28;20812;-55
2022/10/01 09:06:20;;;;;;;7.50;6.57;;;15.60;1.00;;;;;;5046648;28;20414;-54
2022/10/01 09:09:05;;;;;;;7.43;6.70;;;15.70;1.00;;;;;;5047096;28;20428;-55
2022/10/01 09:11:59;;;;;;;8.00;6.27;;;15.70;1.00;;;;;;5043676;28;20413;-54
2022/10/01 09:14:54;;;;;;;8.57;7.00;;;15.80;1.00;;;;;;5038536;28;20439;-53
2022/10/01 09:18:01;;;;;;;7.63;6.80;;;16.00;1.00;;;;;;5050876;28;20421;-54
2022/10/01 09:20:56;;;;;;;6.90;6.20;;;16.00;1.00;;;;;;5053513;28;20415;-54
2022/10/01 09:23:40;;;;;;;6.83;6.13;;;15.90;1.00;;;;;;5059605;28;20455;-54
2022/10/01 09:26:10;;;;;;;8.93;8.00;;;15.70;1.00;;;;;;5064718;28;20909;-54
2022/10/01 09:28:39;;;;;;;7.30;6.60;;;15.80;1.00;;;;;;5052836;28;20449;-55
2022/10/01 09:31:15;;;;;;;6.33;5.73;;;15.60;1.00;;;;;;5050350;28;20430;-54
2022/10/01 09:33:45;;;;;;;7.80;7.03;;;15.70;1.00;;;;;;5053479;28;20448;-54
2022/10/01 09:36:35;;;;;;;12.90;7.00;;;15.80;1.00;;;;;;5056369;28;20855;-55
2022/10/01 09:39:13;;;;;;;6.80;6.20;;;15.70;1.00;;;;;;5048371;28;20428;-55
2022/10/01 09:41:39;;;;;;;8.00;5.90;;;15.80;1.00;;;;;;5046480;28;20503;-56
2022/10/01 09:44:11;;;;;;;6.27;5.67;;;15.90;1.00;;;;;;5045193;28;20454;-55
2022/10/01 09:46:36;;;;;;;6.93;6.33;;;16.00;1.00;;;;;;5051299;28;20200;-54
2022/10/01 09:49:12;;;;;;;6.90;6.30;;;16.00;1.00;;;;;;5052062;28;20420;-53
2022/10/01 09:51:40;;;;;;;6.73;6.13;;;16.00;1.00;;;;;;5052150;28;20234;-54
2022/10/01 09:54:27;;;;;;;4.47;4.07;;;15.90;1.00;;;;;;5046480;28;20502;-55
2022/10/01 09:57:05;;;;;;;3.67;3.37;;;16.00;1.00;;;;;;5050813;28;20500;-54
2022/10/01 09:59:42;;;;;;;4.70;4.27;;;16.00;1.00;;;;;;5043817;28;20541;-55
2022/10/01 10:02:18;;;;;;;4.03;3.70;;;16.10;1.00;;;;;;5051151;28;20431;-55
2022/10/01 10:04:44;;;;;;;3.83;3.53;;;16.10;1.00;;;;;;5051405;28;20457;-52
2022/10/01 10:07:16;;;;;;;4.27;3.40;;;16.10;1.00;;;;;;5048545;28;20421;-55
2022/10/01 10:09:42;;;;;;;4.00;3.57;;;16.20;1.00;;;;;;5049463;28;20713;-53
2022/10/01 10:12:36;;;;;;;3.60;3.30;;;16.30;1.00;;;;;;5052496;28;20491;-53
2022/10/01 10:15:15;;;;;;;4.17;3.77;;;16.50;1.00;;;;;;5048749;28;20199;-53
2022/10/01 10:17:45;;;;;;;5.00;3.20;;;16.50;1.00;;;;;;5052986;28;20491;-54
2022/10/01 10:20:36;;;;;;;4.13;3.50;;;16.50;1.00;;;;;;5051802;28;20431;-54
2022/10/01 10:23:15;;;;;;;14.07;4.17;;;16.50;1.00;;;;;;5051803;28;20834;-54
2022/10/01 10:25:42;;;;;;;4.37;3.70;;;16.50;1.00;;;;;;5063715;28;20463;-55
2022/10/01 10:28:41;;;;;;;4.30;3.30;;;16.50;1.00;;;;;;5048847;28;20468;-53
2022/10/01 10:31:20;;;;;;;5.40;3.90;;;16.60;1.00;;;;;;5047496;28;20448;-54
2022/10/01 10:33:50;;;;;;;3.07;2.77;;;16.70;1.00;;;;;;5048394;28;20451;-56
2022/10/01 10:36:18;;;;;;;7.30;3.93;;;16.70;1.00;;;;;;5048328;28;20428;-56
2022/10/01 10:38:48;;;;;;;3.40;3.10;;;16.60;1.00;;;;;;5052573;28;20849;-55
2022/10/01 10:41:20;;;;;;;4.80;4.33;;;16.60;1.00;;;;;;5051125;28;20428;-53
2022/10/01 10:43:47;;;;;;;5.07;4.00;;;16.60;1.00;;;;;;5050091;28;20483;-53
2022/10/01 10:46:27;;;;;;;4.10;3.70;;;16.50;1.00;;;;;;5051767;28;20439;-55
2022/10/01 10:48:59;;;;;;;5.80;3.50;;;16.50;1.00;;;;;;5049406;28;20955;-53
2022/10/01 10:51:26;;;;;;;3.17;2.87;;;16.40;1.00;;;;;;5045914;28;20557;-56
2022/10/01 10:53:52;;;;;;;4.17;3.50;;;16.20;1.00;;;;;;5050702;28;20507;-55
2022/10/01 10:56:23;;;;;;;4.57;2.93;;;16.10;1.00;;;;;;5059197;28;20842;-58
2022/10/01 10:58:50;;;;;;;4.90;3.87;;;15.90;1.00;;;;;;5064747;28;20187;-53
2022/10/01 11:01:20;;;;;;;5.80;3.40;;;15.90;1.00;;;;;;5050815;28;20548;-55
2022/10/01 11:03:48;;;;;;;7.20;3.73;;;15.90;1.00;;;;;;5050767;28;20463;-54
2022/10/01 11:06:17;;;;;;;3.47;3.17;;;15.80;1.00;;;;;;5051751;28;20454;-55
2022/10/01 11:08:44;;;;;;;3.77;3.47;;;15.80;1.00;;;;;;5050038;28;20460;-52
2022/10/01 11:11:33;;;;;;;7.03;4.47;;;15.60;1.00;;;;;;5051858;28;20515;-53
2022/10/01 11:14:20;;;;;;;5.00;4.57;;;15.60;1.00;;;;;;5049899;28;20491;-55
2022/10/01 11:17:17;;;;;;;4.13;3.53;;;15.60;1.00;;;;;;5050726;28;20449;-55
2022/10/01 11:19:59;;;;;;;4.90;4.40;;;15.50;1.00;;;;;;5048795;28;20805;-54
2022/10/01 11:22:42;;;;;;;3.93;3.60;;;15.50;1.00;;;;;;5047287;28;20450;-54
2022/10/01 11:25:26;;;;;;;4.40;3.80;;;15.50;1.00;;;;;;5051488;28;20452;-54
2022/10/01 11:28:11;;;;;;;3.97;3.60;;;15.40;1.00;;;;;;5050895;28;20420;-56
2022/10/01 11:30:53;;;;;;;4.50;4.07;;;15.30;1.00;;;;;;5044413;28;20536;-56
2022/10/01 11:33:36;;;;;;;4.07;3.70;;;15.20;1.00;;;;;;5047217;28;20489;-54
2022/10/01 11:36:15;;;;;;;5.03;4.53;;;15.20;1.00;;;;;;5050015;28;20541;-54
2022/10/01 11:38:46;;;;;;;5.07;4.00;;;15.10;1.00;;;;;;5048782;28;20490;-54
2022/10/01 11:41:24;;;;;;;4.30;3.90;;;15.10;1.00;;;;;;5048562;28;20428;-55
2022/10/01 11:43:58;;;;;;;4.77;4.37;;;15.00;1.00;;;;;;5050335;28;20466;-51
2022/10/01 11:46:29;;;;;;;4.93;4.40;;;15.00;1.00;;;;;;5049386;28;20428;-55
2022/10/01 11:49:01;;;;;;;4.17;3.30;;;15.00;1.00;;;;;;5047574;28;20925;-55
2022/10/01 11:51:37;;;;;;;6.87;4.30;;;15.00;1.00;;;;;;5044598;28;20408;-52
2022/10/01 11:54:09;;;;;;;4.33;3.97;;;14.90;1.00;;;;;;5053478;28;20731;-55
2022/10/01 11:59:38;;;;;;;4.13;3.20;;;15.00;1.00;;;;;;5047298;28;20457;-55
2022/10/01 12:02:24;;;;;;;4.10;3.70;;;15.00;1.00;;;;;;5051235;28;20498;-54
2022/10/01 12:05:02;;;;;;;4.60;3.00;;;14.80;1.00;;;;;;5049614;28;20457;-55
2022/10/01 12:07:54;;;;;;;3.37;3.07;;;14.80;1.00;;;;;;5043361;28;20425;-55
2022/10/01 12:10:46;;;;;;;2.17;1.70;;;14.80;1.00;;;;;;5049802;28;20454;-55
2022/10/01 12:13:24;;;;;;;2.50;1.67;;;14.90;1.00;;;;;;5046107;28;20433;-56
2022/10/01 12:16:21;;;;;;;2.20;2.00;;;14.90;1.00;;;;;;5050516;28;20510;-55
2022/10/01 12:18:53;;;;;;;2.27;1.70;;;14.90;1.00;;;;;;5047129;28;20426;-53
2022/10/01 12:21:44;;;;;;;2.17;1.97;;;14.90;1.00;;;;;;5049347;28;21041;-55
2022/10/01 12:24:12;;;;;;;1.93;1.83;;;14.70;1.00;;;;;;5049352;28;20472;-55
2022/10/01 12:26:57;;;;;;;3.10;2.10;;;14.60;1.00;;;;;;5050125;28;20476;-54
2022/10/01 12:29:28;;;;;;;2.70;1.90;;;14.60;1.00;;;;;;5049977;28;20443;-55
2022/10/01 12:32:14;;;;;;;2.10;1.40;;;14.60;1.00;;;;;;5049949;28;20416;-54
2022/10/01 12:34:57;;;;;;;2.33;2.13;;;14.60;1.00;;;;;;5043625;28;20779;-54
2022/10/01 12:37:34;;;;;;;1.80;1.70;;;14.50;1.00;;;;;;5049247;28;20911;-53
2022/10/01 12:40:11;;;;;;;1.83;1.73;;;14.50;1.00;;;;;;5050035;28;20416;-55
2022/10/01 12:43:00;;;;;;;2.20;1.67;;;14.40;1.00;;;;;;5049936;28;20460;-55
2022/10/01 12:45:49;;;;;;;2.33;2.07;;;14.40;1.00;;;;;;5049146;28;20525;-53
2022/10/01 12:48:46;;;;;;;1.80;1.23;;;14.30;1.00;;;;;;5049573;28;20939;-54
2022/10/01 12:51:30;;;;;;;2.13;1.60;;;14.40;1.00;;;;;;5048833;28;20497;-57
2022/10/01 12:54:19;;;;;;;1.80;1.30;;;14.40;1.00;;;;;;5049607;28;20425;-55
2022/10/01 12:56:59;;;;;;;2.13;1.57;;;14.40;1.00;;;;;;5049649;28;21037;-55
2022/10/01 12:59:54;;;;;;;1.83;1.43;;;14.40;1.00;;;;;;5049514;28;20463;-54
2022/10/01 13:03:07;;;;;;;2.43;1.90;;;14.40;1.00;;;;;;5049550;28;20413;-55
2022/10/01 13:06:08;;;;;;;2.80;1.70;;;14.60;1.00;;;;;;5026616;28;20475;-54
2022/10/01 13:08:56;;;;;;;2.13;1.93;;;14.60;1.00;;;;;;5026640;28;20430;-54
2022/10/01 13:11:35;;;;;;;2.53;1.80;;;14.60;1.00;;;;;;5045882;28;20928;-55
2022/10/01 13:14:03;;;;;;;3.43;3.13;;;14.60;1.00;;;;;;5049365;28;20472;-53
2022/10/01 13:17:00;;;;;;;3.53;2.70;;;14.70;1.00;;;;;;5048964;28;20422;-56
2022/10/01 13:19:35;;;;;;;3.70;2.30;;;14.70;1.00;;;;;;5049467;28;20454;-54
2022/10/01 13:22:15;;;;;;;3.20;2.90;;;14.60;1.00;;;;;;5049695;28;20474;-54
2022/10/01 13:25:17;;;;;;;8.30;3.10;;;14.60;1.00;;;;;;5048703;28;20440;-55
2022/10/01 13:27:53;;;;;;;3.10;2.77;;;14.60;1.00;;;;;;5049116;28;20419;-55